<?xml version="1.0" encoding="UTF-8" standalone="no" ?>
<gpx xmlns="http://www.topografix.com/GPX/1/1" xmlns:xsi="http://www.w3.org/2001/XMLSchema-instance" xsi:schemaLocation="http://www.topografix.com/GPX/1/1 http://www.topografix.com/GPX/1/1/gpx.xsd" version="1.1" creator="VisuGPX - https://www.visugpx.com">
  <metadata>
    <name>La Route Napoléon à Cheval© dans les Hautes Alpes - Variante de 9 km pour visiter le château de Tallard</name>
    <desc><![CDATA[

C'est un parcours de 126 km de de Sisteron à Corps. L'altitude varie de 497 m à 1 709 m. Le dénivelé maximum est de 17 %. La Moyenne Montagne représente 22 % du parcours.

Randonner sur la Route Napoléon à Cheval avec un centre équestre
Les Sabots de Vénus, 2833 route des Baux, 05400 La Roche des Arnauds.

Site internet : http://www.les-sabots-de-venus.com 
Mail : lessabotsdevenus@aol.com  Tél : 06 32 83 11 64 ou 06 43 80 40 31
]]></desc>
  </metadata>
  <trk>
    <name><![CDATA[5387297-Variante Rte Napoléon à cheval - Château de Tallar]]></name>
    <trkseg>
      <trkpt lat="44.45357" lon="6.02071">
        <ele>613</ele>
        <time>2018-05-15T21:25:16Z</time>
      </trkpt>
      <trkpt lat="44.45284" lon="6.02126">
        <ele>609</ele>
        <time>2018-05-15T21:26:16Z</time>
      </trkpt>
      <trkpt lat="44.45054" lon="6.02165">
        <ele>605</ele>
        <time>2018-05-15T21:27:16Z</time>
      </trkpt>
      <trkpt lat="44.44796" lon="6.02527">
        <ele>594</ele>
        <time>2018-05-15T21:28:16Z</time>
      </trkpt>
      <trkpt lat="44.44659" lon="6.02811">
        <ele>588</ele>
        <time>2018-05-15T21:29:16Z</time>
      </trkpt>
      <trkpt lat="44.4449" lon="6.02987">
        <ele>588</ele>
        <time>2018-05-15T21:30:16Z</time>
      </trkpt>
      <trkpt lat="44.44364" lon="6.03068">
        <ele>586</ele>
        <time>2018-05-15T21:31:16Z</time>
      </trkpt>
      <trkpt lat="44.44269" lon="6.03025">
        <ele>585</ele>
        <time>2018-05-15T21:32:16Z</time>
      </trkpt>
      <trkpt lat="44.44159" lon="6.03077">
        <ele>584</ele>
        <time>2018-05-15T21:33:16Z</time>
      </trkpt>
      <trkpt lat="44.44043" lon="6.03098">
        <ele>582</ele>
        <time>2018-05-15T21:34:16Z</time>
      </trkpt>
      <trkpt lat="44.44009" lon="6.03313">
        <ele>580</ele>
        <time>2018-05-15T21:35:16Z</time>
      </trkpt>
      <trkpt lat="44.44037" lon="6.03416">
        <ele>581</ele>
        <time>2018-05-15T21:36:16Z</time>
      </trkpt>
      <trkpt lat="44.44138" lon="6.03626">
        <ele>581</ele>
        <time>2018-05-15T21:37:16Z</time>
      </trkpt>
      <trkpt lat="44.44178" lon="6.03811">
        <ele>584</ele>
        <time>2018-05-15T21:38:16Z</time>
      </trkpt>
      <trkpt lat="44.44211" lon="6.03862">
        <ele>585</ele>
        <time>2018-05-15T21:39:16Z</time>
      </trkpt>
      <trkpt lat="44.44282" lon="6.04025">
        <ele>589</ele>
        <time>2018-05-15T21:40:16Z</time>
      </trkpt>
      <trkpt lat="44.44263" lon="6.0415">
        <ele>587</ele>
        <time>2018-05-15T21:41:16Z</time>
      </trkpt>
      <trkpt lat="44.44276" lon="6.0424">
        <ele>588</ele>
        <time>2018-05-15T21:42:16Z</time>
      </trkpt>
      <trkpt lat="44.44355" lon="6.04403">
        <ele>588</ele>
        <time>2018-05-15T21:43:16Z</time>
      </trkpt>
      <trkpt lat="44.44413" lon="6.04326">
        <ele>596</ele>
        <time>2018-05-15T21:44:16Z</time>
      </trkpt>
      <trkpt lat="44.4447" lon="6.04302">
        <ele>609</ele>
        <time>2018-05-15T21:45:16Z</time>
      </trkpt>
      <trkpt lat="44.44461" lon="6.04144">
        <ele>610</ele>
        <time>2018-05-15T21:46:16Z</time>
      </trkpt>
      <trkpt lat="44.44444" lon="6.04064">
        <ele>605</ele>
        <time>2018-05-15T21:47:16Z</time>
      </trkpt>
      <trkpt lat="44.44459" lon="6.03978">
        <ele>605</ele>
        <time>2018-05-15T21:48:16Z</time>
      </trkpt>
      <trkpt lat="44.44546" lon="6.04014">
        <ele>621</ele>
        <time>2018-05-15T21:49:16Z</time>
      </trkpt>
      <trkpt lat="44.4453" lon="6.04068">
        <ele>623</ele>
        <time>2018-05-15T21:50:16Z</time>
      </trkpt>
      <trkpt lat="44.44551" lon="6.04141">
        <ele>624</ele>
        <time>2018-05-15T21:51:16Z</time>
      </trkpt>
      <trkpt lat="44.44538" lon="6.04189">
        <ele>624</ele>
        <time>2018-05-15T21:52:16Z</time>
      </trkpt>
      <trkpt lat="44.44548" lon="6.04235">
        <ele>628</ele>
        <time>2018-05-15T21:53:16Z</time>
      </trkpt>
      <trkpt lat="44.44552" lon="6.04285">
        <ele>631</ele>
        <time>2018-05-15T21:54:16Z</time>
      </trkpt>
      <trkpt lat="44.44634" lon="6.04476">
        <ele>645</ele>
        <time>2018-05-15T21:55:16Z</time>
      </trkpt>
      <trkpt lat="44.44701" lon="6.04544">
        <ele>650</ele>
        <time>2018-05-15T21:56:16Z</time>
      </trkpt>
      <trkpt lat="44.44775" lon="6.046">
        <ele>654</ele>
        <time>2018-05-15T21:57:16Z</time>
      </trkpt>
      <trkpt lat="44.44834" lon="6.04735">
        <ele>655</ele>
        <time>2018-05-15T21:58:16Z</time>
      </trkpt>
      <trkpt lat="44.44937" lon="6.04815">
        <ele>668</ele>
        <time>2018-05-15T21:59:16Z</time>
      </trkpt>
      <trkpt lat="44.45063" lon="6.04791">
        <ele>664</ele>
        <time>2018-05-15T22:00:16Z</time>
      </trkpt>
      <trkpt lat="44.45198" lon="6.04978">
        <ele>675</ele>
        <time>2018-05-15T22:01:16Z</time>
      </trkpt>
      <trkpt lat="44.45357" lon="6.05072">
        <ele>668</ele>
        <time>2018-05-15T22:02:16Z</time>
      </trkpt>
      <trkpt lat="44.4542" lon="6.0507">
        <ele>653</ele>
        <time>2018-05-15T22:03:16Z</time>
      </trkpt>
      <trkpt lat="44.4555" lon="6.05145">
        <ele>631</ele>
        <time>2018-05-15T22:04:16Z</time>
      </trkpt>
      <trkpt lat="44.45617" lon="6.05192">
        <ele>625</ele>
        <time>2018-05-15T22:05:16Z</time>
      </trkpt>
      <trkpt lat="44.45639" lon="6.05186">
        <ele>619</ele>
        <time>2018-05-15T22:06:16Z</time>
      </trkpt>
      <trkpt lat="44.457" lon="6.0522">
        <ele>614</ele>
        <time>2018-05-15T22:07:16Z</time>
      </trkpt>
      <trkpt lat="44.45832" lon="6.05403">
        <ele>613</ele>
        <time>2018-05-15T22:08:16Z</time>
      </trkpt>
      <trkpt lat="44.45942" lon="6.05519">
        <ele>614</ele>
        <time>2018-05-15T22:09:16Z</time>
      </trkpt>
      <trkpt lat="44.46006" lon="6.05497">
        <ele>609</ele>
        <time>2018-05-15T22:10:16Z</time>
      </trkpt>
      <trkpt lat="44.46" lon="6.05562">
        <ele>615</ele>
        <time>2018-05-15T22:11:16Z</time>
      </trkpt>
      <trkpt lat="44.46175" lon="6.0569">
        <ele>606</ele>
        <time>2018-05-15T22:12:16Z</time>
      </trkpt>
      <trkpt lat="44.46278" lon="6.05683">
        <ele>603</ele>
        <time>2018-05-15T22:13:16Z</time>
      </trkpt>
      <trkpt lat="44.4619" lon="6.05454">
        <ele>610</ele>
        <time>2018-05-15T22:14:16Z</time>
      </trkpt>
      <trkpt lat="44.46255" lon="6.05377">
        <ele>613</ele>
        <time>2018-05-15T22:15:16Z</time>
      </trkpt>
      <trkpt lat="44.46251" lon="6.05313">
        <ele>612</ele>
        <time>2018-05-15T22:16:16Z</time>
      </trkpt>
      <trkpt lat="44.46267" lon="6.05235">
        <ele>614</ele>
        <time>2018-05-15T22:17:16Z</time>
      </trkpt>
      <trkpt lat="44.46108" lon="6.05089">
        <ele>608</ele>
        <time>2018-05-15T22:18:16Z</time>
      </trkpt>
      <trkpt lat="44.46062" lon="6.04982">
        <ele>606</ele>
        <time>2018-05-15T22:19:16Z</time>
      </trkpt>
      <trkpt lat="44.4608" lon="6.04871">
        <ele>607</ele>
        <time>2018-05-15T22:20:16Z</time>
      </trkpt>
      <trkpt lat="44.46043" lon="6.04914">
        <ele>606</ele>
        <time>2018-05-15T22:21:16Z</time>
      </trkpt>
      <trkpt lat="44.45951" lon="6.0469">
        <ele>603</ele>
        <time>2018-05-15T22:22:16Z</time>
      </trkpt>
      <trkpt lat="44.45792" lon="6.04334">
        <ele>603</ele>
        <time>2018-05-15T22:23:16Z</time>
      </trkpt>
      <trkpt lat="44.45777" lon="6.04235">
        <ele>602</ele>
        <time>2018-05-15T22:24:16Z</time>
      </trkpt>
      <trkpt lat="44.45771" lon="6.03905">
        <ele>599</ele>
        <time>2018-05-15T22:25:16Z</time>
      </trkpt>
      <trkpt lat="44.45783" lon="6.03819">
        <ele>601</ele>
        <time>2018-05-15T22:26:16Z</time>
      </trkpt>
      <trkpt lat="44.45783" lon="6.03733">
        <ele>600</ele>
        <time>2018-05-15T22:27:16Z</time>
      </trkpt>
      <trkpt lat="44.45679" lon="6.03171">
        <ele>599</ele>
        <time>2018-05-15T22:28:16Z</time>
      </trkpt>
      <trkpt lat="44.45651" lon="6.0309">
        <ele>597</ele>
        <time>2018-05-15T22:29:16Z</time>
      </trkpt>
      <trkpt lat="44.45578" lon="6.02991">
        <ele>597</ele>
        <time>2018-05-15T22:30:16Z</time>
      </trkpt>
      <trkpt lat="44.45357" lon="6.02596">
        <ele>603</ele>
        <time>2018-05-15T22:31:16Z</time>
      </trkpt>
      <trkpt lat="44.45345" lon="6.02446">
        <ele>605</ele>
        <time>2018-05-15T22:32:16Z</time>
      </trkpt>
      <trkpt lat="44.45369" lon="6.02244">
        <ele>608</ele>
        <time>2018-05-15T22:33:16Z</time>
      </trkpt>
      <trkpt lat="44.45443" lon="6.02223">
        <ele>613</ele>
        <time>2018-05-15T22:34:16Z</time>
      </trkpt>
      <trkpt lat="44.45409" lon="6.02038">
        <ele>614</ele>
        <time>2018-05-15T22:35:16Z</time>
      </trkpt>
    </trkseg>
  </trk>
</gpx>